Time;durP1;ratioP1;P1;durP2;ratioP2;P2;SDS_P1;SDS_P2;PMS_P1;PMS_P2;Temp;Humidity;BMP_temperature;BMP_pressure;BME280_temperature;BME280_humidity;BME280_pressure;Samples;Min_cycle;Max_cycle;Signal;HPM_P1;HPM_P2
2024/03/19 00:01:15;;;;;;;8.32;4.60;;;;;;;;;;4927491;29;20220;-89
2024/03/19 00:04:20;;;;;;;9.18;4.40;;;;;;;;;;4909572;29;20196;-89
2024/03/19 00:07:26;;;;;;;9.93;4.45;;;;;;;;;;4909780;29;20224;-89
2024/03/19 00:10:32;;;;;;;7.50;4.50;;;;;;;;;;4908764;29;20224;-89
2024/03/19 00:13:37;;;;;;;9.95;4.68;;;;;;;;;;4909962;29;20263;-88
2024/03/19 00:16:42;;;;;;;9.60;5.05;;;;;;;;;;4908680;29;20203;-89
2024/03/19 00:19:47;;;;;;;8.27;4.95;;;;;;;;;;4919846;28;20196;-90
2024/03/19 00:22:53;;;;;;;12.05;5.15;;;;;;;;;;4920871;28;20188;-88
2024/03/19 00:25:59;;;;;;;11.73;5.47;;;;;;;;;;4908746;29;20272;-90
2024/03/19 00:29:05;;;;;;;11.68;5.30;;;;;;;;;;4908653;29;20294;-88
2024/03/19 00:32:10;;;;;;;10.55;5.40;;;;;;;;;;4910427;29;20189;-90
2024/03/19 00:35:15;;;;;;;8.88;4.68;;;;;;;;;;4909048;29;20224;-88
2024/03/19 00:38:22;;;;;;;9.88;4.88;;;;;;;;;;4909748;29;20196;-90
2024/03/19 00:41:27;;;;;;;9.55;5.28;;;;;;;;;;4928052;28;20184;-89
2024/03/19 00:44:33;;;;;;;9.10;4.85;;;;;;;;;;4928542;28;20758;-90
2024/03/19 00:47:39;;;;;;;8.20;5.05;;;;;;;;;;4928449;28;20224;-90
2024/03/19 00:50:44;;;;;;;9.13;4.90;;;;;;;;;;4928713;28;20204;-89
2024/03/19 00:53:50;;;;;;;11.57;5.32;;;;;;;;;;4927274;29;20195;-91
2024/03/19 00:56:56;;;;;;;13.60;5.30;;;;;;;;;;4928227;28;20211;-90
2024/03/19 01:00:08;;;;;;;10.23;4.88;;;;;;;;;;4927347;28;20683;-90
2024/03/19 01:03:14;;;;;;;15.15;5.45;;;;;;;;;;4939574;28;20209;-90
2024/03/19 01:06:20;;;;;;;13.57;5.90;;;;;;;;;;4928028;29;20240;-91
2024/03/19 01:09:27;;;;;;;11.02;5.22;;;;;;;;;;4908211;29;20173;-91
2024/03/19 01:12:33;;;;;;;9.02;4.90;;;;;;;;;;4907376;29;20201;-89
2024/03/19 01:15:40;;;;;;;10.70;5.05;;;;;;;;;;4907852;29;20197;-90
2024/03/19 01:18:45;;;;;;;14.23;5.10;;;;;;;;;;4937604;28;20192;-90
2024/03/19 01:21:50;;;;;;;11.45;5.50;;;;;;;;;;4925043;29;20220;-88
2024/03/19 01:24:58;;;;;;;12.13;5.80;;;;;;;;;;4925151;28;20304;-91
2024/03/19 01:28:02;;;;;;;13.00;5.43;;;;;;;;;;4925342;28;20267;-91
2024/03/19 01:31:07;;;;;;;11.18;5.30;;;;;;;;;;4936918;28;20192;-89
2024/03/19 01:34:12;;;;;;;10.23;5.25;;;;;;;;;;4926927;28;20212;-89
2024/03/19 01:37:17;;;;;;;9.70;5.07;;;;;;;;;;4935503;29;20620;-91
2024/03/19 01:40:24;;;;;;;8.77;4.68;;;;;;;;;;4924793;28;20200;-88
2024/03/19 01:43:29;;;;;;;9.32;4.78;;;;;;;;;;4926064;28;20643;-88
2024/03/19 01:46:35;;;;;;;9.40;5.30;;;;;;;;;;4926592;29;20312;-89
2024/03/19 01:49:40;;;;;;;12.18;5.28;;;;;;;;;;4926193;29;20212;-89
2024/03/19 01:52:46;;;;;;;11.88;5.22;;;;;;;;;;4925780;29;20191;-88
2024/03/19 01:55:52;;;;;;;9.25;5.15;;;;;;;;;;4923549;29;20188;-89
2024/03/19 01:58:59;;;;;;;11.50;5.10;;;;;;;;;;4918711;29;20200;-91
2024/03/19 02:02:04;;;;;;;11.18;5.32;;;;;;;;;;4905829;29;20615;-90
2024/03/19 02:05:10;;;;;;;10.25;5.22;;;;;;;;;;4905676;29;20200;-88
2024/03/19 02:08:15;;;;;;;11.40;5.00;;;;;;;;;;4907353;29;20219;-89
2024/03/19 02:11:24;;;;;;;12.13;5.43;;;;;;;;;;4916071;29;20212;-88
2024/03/19 02:14:29;;;;;;;12.50;5.18;;;;;;;;;;4906257;29;20232;-89
2024/03/19 02:17:34;;;;;;;10.05;5.18;;;;;;;;;;4916946;28;20212;-89
2024/03/19 02:20:41;;;;;;;11.30;5.32;;;;;;;;;;4915652;28;20341;-90
2024/03/19 02:23:47;;;;;;;9.45;5.50;;;;;;;;;;4918197;29;20256;-89
2024/03/19 02:26:52;;;;;;;10.45;5.90;;;;;;;;;;4927418;29;20216;-88
2024/03/19 02:29:57;;;;;;;12.32;6.22;;;;;;;;;;4906170;29;20200;-89
2024/03/19 02:33:02;;;;;;;11.57;6.28;;;;;;;;;;4907351;29;20196;-90
2024/03/19 02:36:07;;;;;;;16.45;7.13;;;;;;;;;;4907147;29;20205;-89
2024/03/19 02:39:14;;;;;;;15.45;6.28;;;;;;;;;;4914433;28;20207;-87
2024/03/19 02:42:20;;;;;;;19.23;7.78;;;;;;;;;;4927397;28;20212;-89
2024/03/19 02:45:26;;;;;;;12.75;6.32;;;;;;;;;;4925605;29;20236;-89
2024/03/19 02:48:31;;;;;;;17.25;6.60;;;;;;;;;;4926067;28;20303;-88
2024/03/19 02:51:36;;;;;;;13.95;6.70;;;;;;;;;;4925548;28;20175;-88
2024/03/19 02:54:43;;;;;;;17.20;6.90;;;;;;;;;;4925780;29;20184;-90
2024/03/19 02:57:47;;;;;;;16.13;6.65;;;;;;;;;;4926402;28;20203;-86
2024/03/19 03:00:53;;;;;;;16.65;7.05;;;;;;;;;;4926736;28;20192;-88
2024/03/19 03:03:58;;;;;;;14.43;6.43;;;;;;;;;;4928932;29;20188;-89
2024/03/19 03:07:03;;;;;;;13.80;7.20;;;;;;;;;;4928881;28;20200;-89
2024/03/19 03:10:10;;;;;;;13.48;7.25;;;;;;;;;;4929726;28;20195;-87
2024/03/19 03:13:15;;;;;;;16.55;7.57;;;;;;;;;;4941224;28;20184;-90
2024/03/19 03:16:21;;;;;;;16.00;7.18;;;;;;;;;;4938992;28;20211;-90
2024/03/19 03:19:26;;;;;;;14.45;7.70;;;;;;;;;;4928568;28;20180;-88
2024/03/19 03:22:32;;;;;;;15.32;7.57;;;;;;;;;;4929509;28;20188;-89
2024/03/19 03:25:39;;;;;;;12.32;6.70;;;;;;;;;;4927534;29;20218;-90
2024/03/19 03:28:46;;;;;;;14.77;7.28;;;;;;;;;;4927715;28;20706;-89
2024/03/19 03:31:52;;;;;;;12.75;6.88;;;;;;;;;;4925702;28;20208;-89
2024/03/19 03:34:57;;;;;;;18.33;7.68;;;;;;;;;;4927564;28;20196;-87
2024/03/19 03:38:02;;;;;;;14.55;6.78;;;;;;;;;;4927975;28;20567;-88
2024/03/19 03:41:09;;;;;;;14.38;7.10;;;;;;;;;;4928775;28;20663;-90
2024/03/19 03:44:14;;;;;;;16.10;8.05;;;;;;;;;;4939407;28;20204;-88
2024/03/19 03:47:20;;;;;;;16.33;7.55;;;;;;;;;;4939120;28;20207;-89
2024/03/19 03:50:25;;;;;;;13.15;7.68;;;;;;;;;;4928663;28;20196;-87
2024/03/19 03:53:30;;;;;;;17.88;7.10;;;;;;;;;;4930249;28;20316;-88
2024/03/19 03:56:36;;;;;;;14.45;7.00;;;;;;;;;;4929481;28;20207;-89
2024/03/19 03:59:43;;;;;;;14.95;8.25;;;;;;;;;;4940982;28;20200;-89
2024/03/19 04:02:49;;;;;;;14.88;7.65;;;;;;;;;;4938676;28;20196;-89
2024/03/19 04:05:54;;;;;;;15.85;7.93;;;;;;;;;;4937796;28;20247;-89
2024/03/19 04:08:59;;;;;;;13.68;7.65;;;;;;;;;;4929360;28;20215;-90
2024/03/19 04:12:06;;;;;;;13.35;7.50;;;;;;;;;;4928964;28;20212;-88
2024/03/19 04:15:13;;;;;;;12.75;7.30;;;;;;;;;;4912384;29;20204;-88
2024/03/19 04:18:18;;;;;;;16.67;8.30;;;;;;;;;;4928967;28;20196;-90
2024/03/19 04:21:23;;;;;;;16.83;8.02;;;;;;;;;;4928698;28;20207;-90
2024/03/19 04:24:28;;;;;;;15.55;8.10;;;;;;;;;;4929723;28;20196;-88
2024/03/19 04:27:35;;;;;;;13.45;8.07;;;;;;;;;;4928516;28;20236;-87
2024/03/19 04:30:40;;;;;;;17.33;8.07;;;;;;;;;;4927987;28;20231;-88
2024/03/19 04:33:46;;;;;;;15.02;7.78;;;;;;;;;;4929402;29;20184;-89
2024/03/19 04:36:51;;;;;;;16.17;7.47;;;;;;;;;;4927417;28;20548;-88
2024/03/19 04:39:57;;;;;;;16.15;8.38;;;;;;;;;;4939535;28;20249;-86
2024/03/19 04:43:04;;;;;;;15.63;7.38;;;;;;;;;;4939515;28;20297;-88
2024/03/19 04:46:10;;;;;;;15.68;7.50;;;;;;;;;;4927141;28;20207;-88
2024/03/19 04:49:15;;;;;;;16.92;7.95;;;;;;;;;;4938551;28;20295;-88
2024/03/19 04:52:20;;;;;;;18.83;8.52;;;;;;;;;;4928575;28;20228;-88
2024/03/19 04:55:25;;;;;;;17.23;8.05;;;;;;;;;;4926059;28;20208;-88
2024/03/19 04:58:36;;;;;;;12.63;7.22;;;;;;;;;;4927439;29;20204;-87
2024/03/19 05:01:41;;;;;;;14.98;8.43;;;;;;;;;;4928503;28;20277;-90
2024/03/19 05:04:46;;;;;;;13.52;7.60;;;;;;;;;;4928368;28;20243;-91
2024/03/19 05:07:52;;;;;;;15.35;7.72;;;;;;;;;;4928790;28;20200;-89
2024/03/19 05:10:57;;;;;;;16.80;8.25;;;;;;;;;;4926885;28;20195;-88
2024/03/19 05:14:04;;;;;;;16.88;7.75;;;;;;;;;;4920907;28;20213;-87
2024/03/19 05:17:09;;;;;;;16.30;8.82;;;;;;;;;;4907854;29;20213;-89
2024/03/19 05:20:14;;;;;;;16.17;7.88;;;;;;;;;;4906944;29;20189;-91
2024/03/19 05:23:19;;;;;;;17.95;7.32;;;;;;;;;;4919172;28;20267;-89
2024/03/19 05:26:24;;;;;;;14.75;8.27;;;;;;;;;;4907736;29;20269;-90
2024/03/19 05:29:32;;;;;;;16.30;8.38;;;;;;;;;;4907628;29;20264;-89
2024/03/19 05:32:37;;;;;;;17.23;8.45;;;;;;;;;;4919029;28;20204;-88
2024/03/19 05:35:42;;;;;;;16.25;7.72;;;;;;;;;;4927964;28;20184;-88
2024/03/19 05:38:47;;;;;;;21.40;8.32;;;;;;;;;;4928239;28;20196;-89
2024/03/19 05:41:53;;;;;;;13.68;7.85;;;;;;;;;;4908452;29;20664;-89
2024/03/19 05:45:00;;;;;;;17.63;8.95;;;;;;;;;;4918539;28;20195;-89
2024/03/19 05:48:05;;;;;;;22.75;9.63;;;;;;;;;;4920116;29;20299;-88
2024/03/19 05:51:12;;;;;;;22.35;8.93;;;;;;;;;;4921150;28;20215;-89
2024/03/19 05:54:17;;;;;;;17.17;8.00;;;;;;;;;;4926767;28;20215;-89
2024/03/19 05:57:23;;;;;;;15.10;8.00;;;;;;;;;;4927961;28;20204;-87
2024/03/19 06:00:30;;;;;;;16.83;8.25;;;;;;;;;;4922755;28;20203;-88
2024/03/19 06:03:37;;;;;;;14.82;8.10;;;;;;;;;;4930501;28;20196;-89
2024/03/19 06:06:43;;;;;;;15.57;8.15;;;;;;;;;;4932378;28;20199;-89
2024/03/19 06:09:48;;;;;;;18.55;8.18;;;;;;;;;;4928476;28;20332;-87
2024/03/19 06:12:53;;;;;;;17.98;7.95;;;;;;;;;;4926362;28;20663;-89
2024/03/19 06:16:04;;;;;;;15.13;8.55;;;;;;;;;;4928319;28;20228;-88
2024/03/19 06:19:09;;;;;;;27.58;9.63;;;;;;;;;;4928861;28;20252;-90
2024/03/19 06:22:14;;;;;;;16.80;8.65;;;;;;;;;;4928683;28;20554;-90
2024/03/19 06:25:19;;;;;;;18.90;8.70;;;;;;;;;;4930105;28;20611;-89
2024/03/19 06:28:26;;;;;;;13.98;8.38;;;;;;;;;;4927164;28;20183;-89
2024/03/19 06:31:35;;;;;;;14.70;8.13;;;;;;;;;;4927078;28;20212;-90
2024/03/19 06:34:40;;;;;;;16.33;8.02;;;;;;;;;;4911237;29;20184;-90
2024/03/19 06:37:46;;;;;;;19.30;7.95;;;;;;;;;;4910007;29;20195;-89
2024/03/19 06:40:51;;;;;;;18.38;8.23;;;;;;;;;;4908598;29;20284;-88
2024/03/19 06:43:56;;;;;;;18.17;7.82;;;;;;;;;;4919294;29;20181;-90
2024/03/19 06:47:03;;;;;;;17.58;7.60;;;;;;;;;;4907728;29;20318;-89
2024/03/19 06:50:13;;;;;;;17.58;8.20;;;;;;;;;;4922327;29;20196;-91
2024/03/19 06:53:18;;;;;;;17.15;7.70;;;;;;;;;;4909575;29;20212;-90
2024/03/19 06:56:25;;;;;;;14.75;7.35;;;;;;;;;;4909660;29;20204;-88
2024/03/19 06:59:29;;;;;;;16.55;7.47;;;;;;;;;;4908338;29;21116;-91
2024/03/19 07:02:36;;;;;;;17.95;8.15;;;;;;;;;;4907979;29;20328;-88
2024/03/19 07:05:44;;;;;;;15.07;8.45;;;;;;;;;;4908019;29;20188;-87
2024/03/19 07:08:53;;;;;;;20.80;8.23;;;;;;;;;;4918234;28;20189;-87
2024/03/19 07:11:59;;;;;;;19.58;9.52;;;;;;;;;;4907490;29;20271;-88
2024/03/19 07:15:09;;;;;;;20.85;8.30;;;;;;;;;;4907677;29;20196;-88
2024/03/19 07:18:16;;;;;;;17.20;9.05;;;;;;;;;;4908370;29;20216;-89
2024/03/19 07:21:21;;;;;;;17.05;8.95;;;;;;;;;;4908396;29;20181;-89
2024/03/19 07:24:27;;;;;;;17.33;8.52;;;;;;;;;;4907707;29;20196;-88
2024/03/19 07:27:36;;;;;;;23.70;9.55;;;;;;;;;;4914935;29;20193;-88
2024/03/19 07:30:44;;;;;;;20.20;9.77;;;;;;;;;;4910184;29;20216;-90
2024/03/19 07:37:11;;;;;;;18.63;10.15;;;;;;;;;;4907208;29;20201;-89
2024/03/19 07:40:20;;;;;;;22.35;9.40;;;;;;;;;;4919068;28;20337;-87
2024/03/19 07:43:25;;;;;;;18.90;9.43;;;;;;;;;;4909088;29;20552;-89
2024/03/19 07:46:30;;;;;;;21.30;8.98;;;;;;;;;;4908028;29;20196;-89
2024/03/19 07:49:37;;;;;;;19.08;8.35;;;;;;;;;;4909965;29;20256;-89
2024/03/19 07:52:42;;;;;;;14.32;8.23;;;;;;;;;;4921908;29;20188;-89
2024/03/19 07:55:49;;;;;;;20.90;11.23;;;;;;;;;;4909326;29;20212;-89
2024/03/19 07:58:54;;;;;;;16.05;8.70;;;;;;;;;;4920534;28;20240;-88
2024/03/19 08:01:59;;;;;;;89.45;28.33;;;;;;;;;;4910081;29;20205;-90
2024/03/19 08:05:07;;;;;;;24.98;9.80;;;;;;;;;;4924091;29;20565;-87
2024/03/19 08:08:12;;;;;;;16.15;7.13;;;;;;;;;;4912398;29;20269;-88
2024/03/19 08:11:18;;;;;;;12.00;7.35;;;;;;;;;;4911338;29;20236;-89
2024/03/19 08:14:23;;;;;;;16.98;7.97;;;;;;;;;;4923131;28;20192;-90
2024/03/19 08:17:29;;;;;;;14.15;7.45;;;;;;;;;;4923759;28;20198;-90
2024/03/19 08:20:37;;;;;;;13.93;7.43;;;;;;;;;;4912067;29;20200;-88
2024/03/19 08:23:46;;;;;;;16.38;7.20;;;;;;;;;;4911838;29;20193;-86
2024/03/19 08:26:51;;;;;;;13.13;7.15;;;;;;;;;;4912418;29;20197;-88
2024/03/19 08:29:58;;;;;;;15.85;7.72;;;;;;;;;;4911425;29;20273;-89
2024/03/19 08:33:03;;;;;;;14.60;9.57;;;;;;;;;;4922879;28;20267;-89
2024/03/19 08:36:10;;;;;;;13.75;7.38;;;;;;;;;;4920621;29;20211;-90
2024/03/19 08:39:16;;;;;;;12.80;7.75;;;;;;;;;;4927837;28;20189;-89
2024/03/19 08:42:21;;;;;;;16.25;9.00;;;;;;;;;;4929140;29;20195;-90
2024/03/19 08:45:27;;;;;;;14.85;8.30;;;;;;;;;;4929812;28;20212;-90
2024/03/19 08:48:32;;;;;;;15.73;8.90;;;;;;;;;;4926663;28;20211;-90
2024/03/19 08:51:39;;;;;;;16.23;7.80;;;;;;;;;;4930598;28;20180;-90
2024/03/19 08:54:44;;;;;;;16.33;7.75;;;;;;;;;;4929455;28;20188;-89
2024/03/19 08:57:49;;;;;;;15.73;9.80;;;;;;;;;;4929151;28;20196;-89
2024/03/19 09:00:55;;;;;;;19.77;9.82;;;;;;;;;;4929994;28;20262;-90
2024/03/19 09:04:03;;;;;;;19.23;7.68;;;;;;;;;;4928206;28;20200;-89
2024/03/19 09:07:10;;;;;;;16.27;9.00;;;;;;;;;;4929720;28;20203;-89
2024/03/19 09:10:15;;;;;;;22.45;12.77;;;;;;;;;;4929753;28;20343;-90
2024/03/19 09:13:19;;;;;;;15.23;8.57;;;;;;;;;;4932132;28;20192;-88
2024/03/19 09:16:25;;;;;;;16.98;8.35;;;;;;;;;;4931579;28;20192;-89
2024/03/19 09:19:39;;;;;;;22.55;9.45;;;;;;;;;;4931219;28;20187;-88
2024/03/19 09:22:47;;;;;;;19.13;8.88;;;;;;;;;;4931648;28;20200;-86
2024/03/19 09:25:53;;;;;;;16.75;8.48;;;;;;;;;;4930393;28;20273;-88
2024/03/19 09:28:58;;;;;;;14.25;7.85;;;;;;;;;;4929571;28;20238;-88
2024/03/19 09:32:03;;;;;;;15.15;8.38;;;;;;;;;;4930174;28;20195;-90
2024/03/19 09:35:09;;;;;;;17.23;8.55;;;;;;;;;;4929568;28;20196;-89
2024/03/19 09:38:18;;;;;;;12.82;8.30;;;;;;;;;;4930353;28;20184;-91
2024/03/19 09:41:24;;;;;;;14.15;7.72;;;;;;;;;;4927465;28;20699;-90
2024/03/19 09:44:29;;;;;;;15.82;7.80;;;;;;;;;;4929680;28;20203;-89
2024/03/19 09:47:35;;;;;;;16.00;8.40;;;;;;;;;;4928661;28;20224;-89
2024/03/19 09:50:41;;;;;;;14.73;8.25;;;;;;;;;;4928523;28;20220;-90
2024/03/19 09:53:48;;;;;;;13.98;8.65;;;;;;;;;;4928747;28;20248;-90
2024/03/19 09:56:53;;;;;;;18.30;9.77;;;;;;;;;;4927065;28;20196;-89
2024/03/19 10:00:00;;;;;;;16.95;8.55;;;;;;;;;;4927217;28;20253;-89
2024/03/19 10:03:06;;;;;;;17.13;8.25;;;;;;;;;;4928396;28;20195;-92
2024/03/19 10:06:13;;;;;;;17.05;8.50;;;;;;;;;;4927833;28;20263;-90
2024/03/19 10:09:32;;;;;;;16.40;8.55;;;;;;;;;;4927273;28;20294;-91
2024/03/19 10:12:38;;;;;;;15.60;8.35;;;;;;;;;;4927398;28;20199;-90
2024/03/19 10:15:47;;;;;;;12.90;7.95;;;;;;;;;;4928113;28;20211;-90
2024/03/19 10:18:53;;;;;;;16.13;8.13;;;;;;;;;;4927231;28;20196;-90
2024/03/19 10:22:00;;;;;;;13.43;7.85;;;;;;;;;;4926873;28;20215;-89
2024/03/19 10:25:07;;;;;;;14.93;8.02;;;;;;;;;;4926552;28;20243;-89
2024/03/19 10:28:16;;;;;;;17.95;8.45;;;;;;;;;;4926059;28;20191;-88
2024/03/19 10:31:23;;;;;;;13.55;7.90;;;;;;;;;;4924702;28;20240;-88
2024/03/19 10:34:28;;;;;;;14.70;8.23;;;;;;;;;;4925662;28;20191;-90
2024/03/19 10:37:33;;;;;;;13.15;7.75;;;;;;;;;;4926586;28;20337;-88
2024/03/19 10:40:43;;;;;;;14.80;8.43;;;;;;;;;;4926598;28;20270;-90
2024/03/19 10:43:50;;;;;;;13.52;8.10;;;;;;;;;;4927900;28;20192;-90
2024/03/19 10:46:55;;;;;;;14.80;8.57;;;;;;;;;;4927653;28;20247;-89
2024/03/19 10:50:01;;;;;;;13.30;7.80;;;;;;;;;;4926190;28;20251;-89
2024/03/19 10:53:08;;;;;;;15.85;8.10;;;;;;;;;;4926357;28;20188;-88
2024/03/19 10:56:15;;;;;;;14.95;7.82;;;;;;;;;;4924177;29;20214;-89
2024/03/19 10:59:20;;;;;;;16.77;8.40;;;;;;;;;;4927409;28;20256;-89
2024/03/19 11:02:26;;;;;;;16.58;9.43;;;;;;;;;;4925496;28;21041;-90
2024/03/19 11:05:31;;;;;;;14.60;8.05;;;;;;;;;;4926239;28;20200;-91
2024/03/19 11:08:38;;;;;;;15.13;8.57;;;;;;;;;;4928664;28;20195;-89
2024/03/19 11:11:44;;;;;;;17.75;9.13;;;;;;;;;;4925715;29;20224;-90
2024/03/19 11:14:55;;;;;;;16.95;8.13;;;;;;;;;;4925539;28;20172;-89
2024/03/19 11:18:00;;;;;;;13.02;7.85;;;;;;;;;;4926145;28;20284;-90
2024/03/19 11:21:05;;;;;;;15.40;8.68;;;;;;;;;;4928067;28;20208;-89
2024/03/19 11:24:21;;;;;;;17.50;8.10;;;;;;;;;;4930785;28;20195;-90
2024/03/19 11:27:35;;;;;;;18.60;9.00;;;;;;;;;;4931054;28;20192;-90
2024/03/19 11:30:47;;;;;;;14.43;8.77;;;;;;;;;;4934861;28;20227;-88
2024/03/19 11:33:53;;;;;;;14.55;7.43;;;;;;;;;;4932921;28;20265;-90
2024/03/19 11:36:59;;;;;;;13.13;7.95;;;;;;;;;;4928934;28;20224;-90
2024/03/19 11:40:12;;;;;;;15.52;7.72;;;;;;;;;;4930545;28;20356;-91
2024/03/19 11:43:19;;;;;;;15.18;7.45;;;;;;;;;;4928743;28;20220;-90
2024/03/19 11:46:24;;;;;;;14.55;7.93;;;;;;;;;;4930030;28;20196;-91
2024/03/19 11:49:31;;;;;;;15.05;7.63;;;;;;;;;;4931735;28;20220;-89
2024/03/19 11:52:36;;;;;;;15.07;8.10;;;;;;;;;;4934133;28;20184;-90
2024/03/19 11:55:42;;;;;;;12.73;7.30;;;;;;;;;;4935961;28;20192;-88
2024/03/19 11:58:50;;;;;;;14.95;7.75;;;;;;;;;;4939141;28;20204;-89
2024/03/19 12:01:57;;;;;;;15.90;8.93;;;;;;;;;;4938561;28;20186;-88
2024/03/19 12:05:03;;;;;;;17.40;8.55;;;;;;;;;;4937887;28;20254;-89
2024/03/19 12:08:09;;;;;;;17.08;9.05;;;;;;;;;;4936999;28;20191;-87
2024/03/19 12:11:19;;;;;;;12.95;7.57;;;;;;;;;;4937266;28;20228;-88
2024/03/19 12:14:30;;;;;;;18.23;9.15;;;;;;;;;;4937469;28;20196;-90
2024/03/19 12:17:47;;;;;;;17.52;9.25;;;;;;;;;;4938133;28;20184;-90
2024/03/19 12:20:53;;;;;;;18.05;9.07;;;;;;;;;;4937390;28;20216;-90
2024/03/19 12:24:00;;;;;;;13.90;8.57;;;;;;;;;;4937197;28;20191;-89
2024/03/19 12:27:09;;;;;;;17.73;8.18;;;;;;;;;;4934426;28;20723;-89
2024/03/19 12:30:17;;;;;;;18.00;8.15;;;;;;;;;;4927480;28;20192;-92
2024/03/19 12:33:37;;;;;;;16.05;8.82;;;;;;;;;;4930078;28;20196;-89
2024/03/19 12:36:43;;;;;;;15.95;8.93;;;;;;;;;;4931443;28;20208;-90
2024/03/19 12:39:49;;;;;;;16.38;8.45;;;;;;;;;;4931748;28;20231;-90
2024/03/19 12:42:56;;;;;;;17.17;8.30;;;;;;;;;;4931899;28;20240;-91
2024/03/19 12:46:06;;;;;;;15.68;8.52;;;;;;;;;;4940333;28;20184;-89
2024/03/19 12:49:11;;;;;;;13.98;7.95;;;;;;;;;;4929813;28;20219;-90
2024/03/19 12:52:16;;;;;;;14.63;8.57;;;;;;;;;;4930538;28;20239;-92
2024/03/19 12:55:22;;;;;;;15.48;8.55;;;;;;;;;;4941979;28;20188;-91
2024/03/19 13:01:50;;;;;;;11.93;7.78;;;;;;;;;;4934113;28;20184;-93
2024/03/19 13:04:56;;;;;;;14.27;8.27;;;;;;;;;;4943465;28;20179;-89
2024/03/19 13:08:04;;;;;;;14.25;8.23;;;;;;;;;;4942405;28;20266;-89
2024/03/19 13:11:13;;;;;;;16.50;8.10;;;;;;;;;;4935889;28;20224;-91
2024/03/19 13:14:19;;;;;;;13.55;7.43;;;;;;;;;;4931199;29;20192;-91
2024/03/19 13:17:29;;;;;;;14.00;6.93;;;;;;;;;;4930381;28;20176;-92
2024/03/19 13:23:54;;;;;;;14.10;8.38;;;;;;;;;;4933681;28;20200;-92
2024/03/19 13:26:59;;;;;;;14.57;8.80;;;;;;;;;;4931850;28;20187;-89
2024/03/19 13:30:08;;;;;;;18.35;9.02;;;;;;;;;;4931675;29;20243;-90
2024/03/19 13:33:19;;;;;;;15.88;8.77;;;;;;;;;;4933809;28;20212;-90
2024/03/19 13:36:26;;;;;;;17.15;9.25;;;;;;;;;;4933077;28;20191;-90
2024/03/19 13:42:51;;;;;;;15.32;8.98;;;;;;;;;;4936428;28;20200;-89
2024/03/19 13:46:01;;;;;;;39.38;16.60;;;;;;;;;;4934818;28;20252;-88
2024/03/19 13:49:09;;;;;;;17.40;10.30;;;;;;;;;;4935360;28;20199;-91
2024/03/19 13:52:17;;;;;;;19.25;9.85;;;;;;;;;;4935830;28;20240;-88
2024/03/19 13:55:24;;;;;;;17.15;9.10;;;;;;;;;;4935971;28;20247;-89
2024/03/19 13:58:29;;;;;;;15.65;9.15;;;;;;;;;;4928995;28;20220;-91
2024/03/19 14:01:34;;;;;;;18.80;9.45;;;;;;;;;;4928846;28;20184;-91
2024/03/19 14:04:41;;;;;;;35.88;13.60;;;;;;;;;;4930316;28;20269;-91
2024/03/19 14:07:46;;;;;;;15.80;8.80;;;;;;;;;;4930196;28;20200;-91
2024/03/19 14:10:54;;;;;;;16.92;9.38;;;;;;;;;;4928291;29;20204;-92
2024/03/19 14:13:59;;;;;;;17.40;8.82;;;;;;;;;;4941230;28;20203;-91
2024/03/19 14:17:06;;;;;;;18.73;9.27;;;;;;;;;;4929214;28;20172;-90
2024/03/19 14:20:14;;;;;;;16.88;9.20;;;;;;;;;;4908438;29;20176;-90
2024/03/19 14:23:20;;;;;;;16.85;8.65;;;;;;;;;;4908726;29;20201;-90
2024/03/19 14:26:26;;;;;;;17.10;8.35;;;;;;;;;;4908987;29;20201;-89
2024/03/19 14:29:31;;;;;;;14.43;8.70;;;;;;;;;;4920614;28;20664;-88
2024/03/19 14:32:37;;;;;;;13.70;7.93;;;;;;;;;;4920802;28;20668;-89
2024/03/19 14:35:48;;;;;;;15.88;8.82;;;;;;;;;;4941341;28;20190;-90
2024/03/19 14:38:53;;;;;;;17.50;9.00;;;;;;;;;;4946979;28;20192;-88
2024/03/19 14:41:59;;;;;;;16.05;8.82;;;;;;;;;;4945635;28;20195;-89
2024/03/19 14:45:07;;;;;;;17.88;8.65;;;;;;;;;;4927400;29;20195;-89
2024/03/19 14:48:12;;;;;;;20.90;9.93;;;;;;;;;;4925665;28;20195;-89
2024/03/19 14:51:19;;;;;;;16.33;8.77;;;;;;;;;;4910939;29;20302;-91
2024/03/19 14:54:24;;;;;;;16.23;9.48;;;;;;;;;;4909296;29;20564;-88
2024/03/19 14:57:32;;;;;;;23.80;9.98;;;;;;;;;;4910132;29;20191;-90
2024/03/19 15:00:36;;;;;;;19.58;10.50;;;;;;;;;;4915816;29;20361;-90
2024/03/19 15:03:42;;;;;;;20.63;9.57;;;;;;;;;;4922600;29;20187;-90
2024/03/19 15:06:50;;;;;;;17.15;9.88;;;;;;;;;;4923263;29;20208;-90
2024/03/19 15:09:55;;;;;;;16.10;9.60;;;;;;;;;;4913217;29;20192;-92
2024/03/19 15:13:10;;;;;;;17.63;9.73;;;;;;;;;;4914056;29;20224;-89
2024/03/19 15:16:15;;;;;;;19.35;9.70;;;;;;;;;;4911919;29;20197;-89
2024/03/19 15:19:21;;;;;;;17.67;10.30;;;;;;;;;;4923011;29;20176;-89
2024/03/19 15:22:29;;;;;;;20.65;9.88;;;;;;;;;;4924321;29;20207;-88
2024/03/19 15:25:34;;;;;;;19.75;9.68;;;;;;;;;;4922677;28;20196;-90
2024/03/19 15:28:39;;;;;;;19.73;9.88;;;;;;;;;;4924145;28;20204;-91
2024/03/19 15:31:45;;;;;;;15.05;9.40;;;;;;;;;;4914505;29;20220;-91
2024/03/19 15:34:50;;;;;;;16.10;9.73;;;;;;;;;;4923891;29;20192;-89
2024/03/19 15:38:01;;;;;;;19.90;9.63;;;;;;;;;;4913473;29;20192;-89
2024/03/19 15:41:07;;;;;;;19.92;10.07;;;;;;;;;;4913599;29;20212;-89
2024/03/19 15:44:16;;;;;;;17.67;9.57;;;;;;;;;;4923875;29;20200;-90
2024/03/19 15:47:21;;;;;;;18.48;9.98;;;;;;;;;;4911367;29;20217;-90
2024/03/19 15:50:29;;;;;;;19.10;9.98;;;;;;;;;;4910518;29;20341;-92
2024/03/19 15:53:36;;;;;;;18.75;10.07;;;;;;;;;;4913540;29;20200;-90
2024/03/19 15:56:42;;;;;;;17.17;9.50;;;;;;;;;;4923803;28;20193;-90
2024/03/19 15:59:47;;;;;;;18.60;10.20;;;;;;;;;;4911397;29;20264;-90
2024/03/19 16:02:52;;;;;;;17.48;10.43;;;;;;;;;;4922125;28;20184;-90
2024/03/19 16:05:58;;;;;;;21.23;10.90;;;;;;;;;;4923714;29;20253;-92
2024/03/19 16:09:08;;;;;;;20.70;10.93;;;;;;;;;;4916662;29;20189;-89
2024/03/19 16:12:14;;;;;;;19.10;10.60;;;;;;;;;;4927547;28;20224;-88
2024/03/19 16:15:19;;;;;;;24.52;11.35;;;;;;;;;;4927664;28;20271;-87
2024/03/19 16:18:25;;;;;;;18.60;10.68;;;;;;;;;;4914736;29;20193;-88
2024/03/19 16:21:31;;;;;;;18.70;10.85;;;;;;;;;;4925169;28;20290;-88
2024/03/19 17:27:21;;;;;;;19.70;10.55;;;;;;;;;;5009908;23;20326;-90
2024/03/19 17:30:30;;;;;;;20.20;10.25;;;;;;;;;;4948226;29;20219;-90
2024/03/19 17:33:35;;;;;;;21.02;10.25;;;;;;;;;;4948995;28;20302;-90
2024/03/19 17:36:41;;;;;;;22.45;10.73;;;;;;;;;;4949493;28;20207;-90
2024/03/19 17:39:51;;;;;;;20.92;10.80;;;;;;;;;;4951234;28;20172;-90
2024/03/19 17:42:58;;;;;;;21.10;10.93;;;;;;;;;;4951436;28;20202;-89
2024/03/19 17:46:04;;;;;;;26.45;11.18;;;;;;;;;;4948474;28;20214;-89
2024/03/19 17:49:11;;;;;;;23.23;11.20;;;;;;;;;;4949588;28;20215;-88
2024/03/19 17:52:17;;;;;;;19.85;10.90;;;;;;;;;;4948996;28;20305;-88
2024/03/19 17:55:22;;;;;;;21.30;10.48;;;;;;;;;;4948486;28;20210;-90
2024/03/19 17:58:30;;;;;;;24.23;11.15;;;;;;;;;;4934996;28;20284;-90
2024/03/19 18:01:37;;;;;;;24.73;10.57;;;;;;;;;;4949081;28;20254;-91
2024/03/19 18:04:42;;;;;;;19.38;11.02;;;;;;;;;;4952218;28;20341;-89
2024/03/19 18:07:49;;;;;;;25.10;12.38;;;;;;;;;;4952226;28;20183;-90
2024/03/19 18:10:58;;;;;;;29.38;13.38;;;;;;;;;;4950931;28;20658;-89
2024/03/19 18:14:05;;;;;;;26.88;13.10;;;;;;;;;;4951312;28;20218;-90
2024/03/19 18:17:10;;;;;;;31.95;13.57;;;;;;;;;;4951330;28;20188;-90
2024/03/19 18:20:17;;;;;;;25.20;12.35;;;;;;;;;;4948683;28;20195;-91
2024/03/19 18:23:23;;;;;;;25.67;11.80;;;;;;;;;;4950596;28;20208;-91
2024/03/19 18:26:28;;;;;;;22.27;11.63;;;;;;;;;;4949518;28;20202;-92
2024/03/19 18:29:36;;;;;;;27.23;12.88;;;;;;;;;;4941642;28;20255;-92
2024/03/19 18:32:41;;;;;;;28.63;13.95;;;;;;;;;;4942307;28;20285;-91
2024/03/19 18:35:48;;;;;;;27.20;11.65;;;;;;;;;;4942347;28;20265;-89
2024/03/19 18:38:53;;;;;;;28.02;12.82;;;;;;;;;;4944459;28;20235;-91
2024/03/19 18:42:00;;;;;;;30.40;13.23;;;;;;;;;;4968594;29;20241;-90
2024/03/19 18:45:10;;;;;;;22.88;12.18;;;;;;;;;;4972305;28;20219;-91
2024/03/19 18:48:15;;;;;;;27.95;13.00;;;;;;;;;;4949443;28;20175;-90
2024/03/19 18:51:25;;;;;;;22.80;12.40;;;;;;;;;;4949918;28;20183;-89
2024/03/19 18:54:30;;;;;;;28.17;12.88;;;;;;;;;;4963559;28;20322;-89
2024/03/19 18:57:37;;;;;;;24.08;12.52;;;;;;;;;;4951097;28;20247;-90
2024/03/19 19:00:46;;;;;;;28.92;12.82;;;;;;;;;;4952366;28;20218;-89
2024/03/19 19:03:53;;;;;;;25.17;12.32;;;;;;;;;;4949553;28;20666;-91
2024/03/19 19:06:59;;;;;;;25.17;12.18;;;;;;;;;;4948100;28;20199;-90
2024/03/19 19:10:04;;;;;;;31.02;14.23;;;;;;;;;;4948385;28;20186;-91
2024/03/19 19:13:11;;;;;;;31.58;15.82;;;;;;;;;;4947531;28;20240;-89
2024/03/19 19:16:18;;;;;;;31.27;15.77;;;;;;;;;;4947943;28;20202;-90
2024/03/19 19:22:47;;;;;;;26.65;12.35;;;;;;;;;;4948038;28;20200;-90
2024/03/19 19:25:52;;;;;;;26.27;12.70;;;;;;;;;;4947769;28;20211;-91
2024/03/19 19:28:58;;;;;;;26.50;12.98;;;;;;;;;;4949633;28;20196;-90
2024/03/19 19:32:07;;;;;;;26.80;12.63;;;;;;;;;;4946289;28;20269;-91
2024/03/19 19:35:12;;;;;;;28.20;13.50;;;;;;;;;;4947900;28;20272;-89
2024/03/19 19:38:19;;;;;;;23.60;13.07;;;;;;;;;;4948174;28;20211;-90